sensor_id;sensor_type;location;lat;lon;timestamp;P1;durP1;ratioP1;P2;durP2;ratioP2
27495;SDS011;14929;51.336;9.416;2024-03-07T00:01:21;4.95;;;4.55;;
27495;SDS011;14929;51.336;9.416;2024-03-07T00:03:48;5.70;;;5.18;;
27495;SDS011;14929;51.336;9.416;2024-03-07T00:06:16;5.45;;;4.95;;
27495;SDS011;14929;51.336;9.416;2024-03-07T00:08:46;5.47;;;4.93;;
27495;SDS011;14929;51.336;9.416;2024-03-07T00:11:13;5.28;;;4.82;;
27495;SDS011;14929;51.336;9.416;2024-03-07T00:13:42;4.63;;;4.28;;
27495;SDS011;14929;51.336;9.416;2024-03-07T00:16:11;5.13;;;4.70;;
27495;SDS011;14929;51.336;9.416;2024-03-07T00:18:40;5.65;;;5.00;;
27495;SDS011;14929;51.336;9.416;2024-03-07T00:21:07;8.15;;;5.25;;
27495;SDS011;14929;51.336;9.416;2024-03-07T00:23:35;5.50;;;5.00;;
27495;SDS011;14929;51.336;9.416;2024-03-07T00:26:03;5.68;;;5.18;;
27495;SDS011;14929;51.336;9.416;2024-03-07T00:28:32;7.00;;;6.30;;
27495;SDS011;14929;51.336;9.416;2024-03-07T00:31:04;6.57;;;5.88;;
27495;SDS011;14929;51.336;9.416;2024-03-07T00:33:34;8.57;;;7.78;;
27495;SDS011;14929;51.336;9.416;2024-03-07T00:36:03;9.23;;;7.50;;
27495;SDS011;14929;51.336;9.416;2024-03-07T00:38:32;8.55;;;7.65;;
27495;SDS011;14929;51.336;9.416;2024-03-07T00:41:00;9.82;;;7.97;;
27495;SDS011;14929;51.336;9.416;2024-03-07T00:43:27;9.48;;;7.82;;
27495;SDS011;14929;51.336;9.416;2024-03-07T00:45:56;8.43;;;7.60;;
27495;SDS011;14929;51.336;9.416;2024-03-07T00:48:23;9.30;;;8.05;;
27495;SDS011;14929;51.336;9.416;2024-03-07T00:50:51;9.00;;;8.10;;
27495;SDS011;14929;51.336;9.416;2024-03-07T00:53:20;9.15;;;8.25;;
27495;SDS011;14929;51.336;9.416;2024-03-07T00:55:48;6.53;;;6.00;;
27495;SDS011;14929;51.336;9.416;2024-03-07T00:58:15;8.35;;;7.53;;
27495;SDS011;14929;51.336;9.416;2024-03-07T01:00:43;11.35;;;8.40;;
27495;SDS011;14929;51.336;9.416;2024-03-07T01:03:11;8.27;;;7.47;;
27495;SDS011;14929;51.336;9.416;2024-03-07T01:05:39;7.25;;;6.55;;
27495;SDS011;14929;51.336;9.416;2024-03-07T01:08:05;10.70;;;8.32;;
27495;SDS011;14929;51.336;9.416;2024-03-07T01:10:35;10.52;;;8.43;;
27495;SDS011;14929;51.336;9.416;2024-03-07T01:13:03;10.35;;;8.05;;
27495;SDS011;14929;51.336;9.416;2024-03-07T01:15:33;8.82;;;7.93;;
27495;SDS011;14929;51.336;9.416;2024-03-07T01:18:01;8.82;;;7.00;;
27495;SDS011;14929;51.336;9.416;2024-03-07T01:20:29;8.52;;;7.35;;
27495;SDS011;14929;51.336;9.416;2024-03-07T01:22:57;10.07;;;7.85;;
27495;SDS011;14929;51.336;9.416;2024-03-07T01:25:25;9.10;;;7.40;;
27495;SDS011;14929;51.336;9.416;2024-03-07T01:27:54;8.48;;;7.65;;
27495;SDS011;14929;51.336;9.416;2024-03-07T01:30:22;12.05;;;8.70;;
27495;SDS011;14929;51.336;9.416;2024-03-07T01:32:53;10.73;;;8.80;;
27495;SDS011;14929;51.336;9.416;2024-03-07T01:35:20;9.93;;;8.20;;
27495;SDS011;14929;51.336;9.416;2024-03-07T01:37:48;9.93;;;8.23;;
27495;SDS011;14929;51.336;9.416;2024-03-07T01:40:18;10.77;;;8.85;;
27495;SDS011;14929;51.336;9.416;2024-03-07T01:42:46;9.02;;;8.05;;
27495;SDS011;14929;51.336;9.416;2024-03-07T01:45:16;10.32;;;9.35;;
27495;SDS011;14929;51.336;9.416;2024-03-07T01:47:44;10.48;;;9.00;;
27495;SDS011;14929;51.336;9.416;2024-03-07T01:50:12;7.47;;;6.78;;
27495;SDS011;14929;51.336;9.416;2024-03-07T01:52:39;7.65;;;6.93;;
27495;SDS011;14929;51.336;9.416;2024-03-07T01:55:07;9.20;;;7.97;;
27495;SDS011;14929;51.336;9.416;2024-03-07T01:57:36;11.32;;;9.00;;
27495;SDS011;14929;51.336;9.416;2024-03-07T02:00:04;11.40;;;9.43;;
27495;SDS011;14929;51.336;9.416;2024-03-07T02:02:35;9.73;;;8.73;;
27495;SDS011;14929;51.336;9.416;2024-03-07T02:05:04;10.13;;;8.23;;
27495;SDS011;14929;51.336;9.416;2024-03-07T02:07:32;10.00;;;8.30;;
27495;SDS011;14929;51.336;9.416;2024-03-07T02:10:00;9.57;;;7.80;;
27495;SDS011;14929;51.336;9.416;2024-03-07T02:12:28;11.70;;;9.60;;
27495;SDS011;14929;51.336;9.416;2024-03-07T02:14:57;9.55;;;8.55;;
27495;SDS011;14929;51.336;9.416;2024-03-07T02:17:25;9.98;;;8.98;;
27495;SDS011;14929;51.336;9.416;2024-03-07T02:19:55;8.40;;;7.53;;
27495;SDS011;14929;51.336;9.416;2024-03-07T02:22:25;10.23;;;9.15;;
27495;SDS011;14929;51.336;9.416;2024-03-07T02:24:53;10.23;;;8.30;;
27495;SDS011;14929;51.336;9.416;2024-03-07T02:27:20;13.13;;;10.43;;
27495;SDS011;14929;51.336;9.416;2024-03-07T02:29:48;10.38;;;9.25;;
27495;SDS011;14929;51.336;9.416;2024-03-07T02:32:16;12.15;;;9.95;;
27495;SDS011;14929;51.336;9.416;2024-03-07T02:34:44;15.70;;;10.15;;
27495;SDS011;14929;51.336;9.416;2024-03-07T02:37:12;12.07;;;9.73;;
27495;SDS011;14929;51.336;9.416;2024-03-07T02:39:41;12.85;;;9.68;;
27495;SDS011;14929;51.336;9.416;2024-03-07T02:42:08;13.05;;;9.30;;
27495;SDS011;14929;51.336;9.416;2024-03-07T02:44:36;12.77;;;10.27;;
27495;SDS011;14929;51.336;9.416;2024-03-07T02:47:04;10.65;;;9.10;;
27495;SDS011;14929;51.336;9.416;2024-03-07T02:49:32;11.90;;;9.57;;
27495;SDS011;14929;51.336;9.416;2024-03-07T02:52:00;11.48;;;10.27;;
27495;SDS011;14929;51.336;9.416;2024-03-07T02:54:32;9.02;;;7.47;;
27495;SDS011;14929;51.336;9.416;2024-03-07T02:57:01;8.50;;;7.78;;
27495;SDS011;14929;51.336;9.416;2024-03-07T02:59:29;9.27;;;7.90;;
27495;SDS011;14929;51.336;9.416;2024-03-07T03:01:57;9.77;;;8.45;;
27495;SDS011;14929;51.336;9.416;2024-03-07T03:04:25;9.23;;;8.32;;
27495;SDS011;14929;51.336;9.416;2024-03-07T03:06:52;8.57;;;7.38;;
27495;SDS011;14929;51.336;9.416;2024-03-07T03:09:21;10.88;;;8.65;;
27495;SDS011;14929;51.336;9.416;2024-03-07T03:11:49;9.30;;;8.18;;
27495;SDS011;14929;51.336;9.416;2024-03-07T03:14:18;8.38;;;7.30;;
27495;SDS011;14929;51.336;9.416;2024-03-07T03:16:46;7.78;;;6.90;;
27495;SDS011;14929;51.336;9.416;2024-03-07T03:19:14;8.13;;;6.80;;
27495;SDS011;14929;51.336;9.416;2024-03-07T03:21:41;6.75;;;6.15;;
27495;SDS011;14929;51.336;9.416;2024-03-07T03:24:09;8.32;;;7.22;;
27495;SDS011;14929;51.336;9.416;2024-03-07T03:26:36;7.28;;;6.40;;
27495;SDS011;14929;51.336;9.416;2024-03-07T03:29:07;6.88;;;6.18;;
27495;SDS011;14929;51.336;9.416;2024-03-07T03:31:38;9.57;;;7.55;;
27495;SDS011;14929;51.336;9.416;2024-03-07T03:34:05;7.68;;;6.10;;
27495;SDS011;14929;51.336;9.416;2024-03-07T03:36:35;8.93;;;7.80;;
27495;SDS011;14929;51.336;9.416;2024-03-07T03:39:02;9.52;;;8.57;;
27495;SDS011;14929;51.336;9.416;2024-03-07T03:41:32;10.88;;;8.82;;
27495;SDS011;14929;51.336;9.416;2024-03-07T03:44:00;9.43;;;8.32;;
27495;SDS011;14929;51.336;9.416;2024-03-07T03:46:28;11.02;;;8.73;;
27495;SDS011;14929;51.336;9.416;2024-03-07T03:48:57;7.65;;;6.93;;
27495;SDS011;14929;51.336;9.416;2024-03-07T03:51:25;10.35;;;9.07;;
27495;SDS011;14929;51.336;9.416;2024-03-07T03:53:53;10.95;;;9.85;;
27495;SDS011;14929;51.336;9.416;2024-03-07T03:56:20;8.40;;;7.50;;
27495;SDS011;14929;51.336;9.416;2024-03-07T03:58:49;7.35;;;6.60;;
27495;SDS011;14929;51.336;9.416;2024-03-07T04:01:17;7.25;;;6.55;;
27495;SDS011;14929;51.336;9.416;2024-03-07T04:03:45;8.45;;;7.03;;
27495;SDS011;14929;51.336;9.416;2024-03-07T04:06:14;8.93;;;8.02;;
27495;SDS011;14929;51.336;9.416;2024-03-07T04:08:42;8.32;;;7.13;;
27495;SDS011;14929;51.336;9.416;2024-03-07T04:11:09;11.45;;;8.77;;
27495;SDS011;14929;51.336;9.416;2024-03-07T04:13:37;11.27;;;9.65;;
27495;SDS011;14929;51.336;9.416;2024-03-07T04:16:05;9.52;;;7.05;;
27495;SDS011;14929;51.336;9.416;2024-03-07T04:18:33;11.60;;;8.73;;
27495;SDS011;14929;51.336;9.416;2024-03-07T04:21:01;12.43;;;8.75;;
27495;SDS011;14929;51.336;9.416;2024-03-07T04:23:30;8.98;;;8.07;;
27495;SDS011;14929;51.336;9.416;2024-03-07T04:25:58;9.95;;;8.95;;
27495;SDS011;14929;51.336;9.416;2024-03-07T04:28:26;10.63;;;9.02;;
27495;SDS011;14929;51.336;9.416;2024-03-07T04:30:54;10.52;;;8.57;;
27495;SDS011;14929;51.336;9.416;2024-03-07T04:33:21;10.27;;;9.23;;
27495;SDS011;14929;51.336;9.416;2024-03-07T04:35:49;8.95;;;8.00;;
27495;SDS011;14929;51.336;9.416;2024-03-07T04:38:19;7.60;;;6.80;;
27495;SDS011;14929;51.336;9.416;2024-03-07T04:40:48;10.93;;;8.75;;
27495;SDS011;14929;51.336;9.416;2024-03-07T04:43:15;7.47;;;6.68;;
27495;SDS011;14929;51.336;9.416;2024-03-07T04:45:43;6.07;;;5.47;;
27495;SDS011;14929;51.336;9.416;2024-03-07T04:48:11;6.97;;;6.22;;
27495;SDS011;14929;51.336;9.416;2024-03-07T04:50:39;5.35;;;4.85;;
27495;SDS011;14929;51.336;9.416;2024-03-07T04:53:07;6.13;;;5.18;;
27495;SDS011;14929;51.336;9.416;2024-03-07T04:55:35;9.40;;;7.18;;
27495;SDS011;14929;51.336;9.416;2024-03-07T04:58:04;8.25;;;7.38;;
27495;SDS011;14929;51.336;9.416;2024-03-07T05:00:32;10.07;;;8.40;;
27495;SDS011;14929;51.336;9.416;2024-03-07T05:02:59;12.30;;;8.15;;
27495;SDS011;14929;51.336;9.416;2024-03-07T05:05:29;13.25;;;9.57;;
27495;SDS011;14929;51.336;9.416;2024-03-07T05:07:57;11.18;;;9.50;;
27495;SDS011;14929;51.336;9.416;2024-03-07T05:10:24;10.68;;;9.00;;
27495;SDS011;14929;51.336;9.416;2024-03-07T05:12:54;11.73;;;9.18;;
27495;SDS011;14929;51.336;9.416;2024-03-07T05:15:25;8.73;;;7.28;;
27495;SDS011;14929;51.336;9.416;2024-03-07T05:17:53;12.00;;;8.85;;
27495;SDS011;14929;51.336;9.416;2024-03-07T05:20:22;11.00;;;9.90;;
27495;SDS011;14929;51.336;9.416;2024-03-07T05:22:49;12.98;;;10.43;;
27495;SDS011;14929;51.336;9.416;2024-03-07T05:25:17;11.63;;;9.80;;
27495;SDS011;14929;51.336;9.416;2024-03-07T05:27:45;9.80;;;8.80;;
27495;SDS011;14929;51.336;9.416;2024-03-07T05:30:15;7.97;;;7.18;;
27495;SDS011;14929;51.336;9.416;2024-03-07T05:32:44;7.15;;;6.45;;
27495;SDS011;14929;51.336;9.416;2024-03-07T05:35:13;6.93;;;6.15;;
27495;SDS011;14929;51.336;9.416;2024-03-07T05:37:41;8.10;;;7.35;;
27495;SDS011;14929;51.336;9.416;2024-03-07T05:40:12;11.68;;;9.63;;
27495;SDS011;14929;51.336;9.416;2024-03-07T05:42:39;11.50;;;9.90;;
27495;SDS011;14929;51.336;9.416;2024-03-07T05:45:07;14.18;;;10.65;;
27495;SDS011;14929;51.336;9.416;2024-03-07T05:47:35;10.38;;;8.57;;
27495;SDS011;14929;51.336;9.416;2024-03-07T05:50:05;13.60;;;10.30;;
27495;SDS011;14929;51.336;9.416;2024-03-07T05:52:34;11.30;;;10.10;;
27495;SDS011;14929;51.336;9.416;2024-03-07T05:55:01;10.25;;;8.63;;
27495;SDS011;14929;51.336;9.416;2024-03-07T05:57:31;7.82;;;7.03;;
27495;SDS011;14929;51.336;9.416;2024-03-07T05:59:59;11.27;;;10.15;;
27495;SDS011;14929;51.336;9.416;2024-03-07T06:02:35;9.52;;;8.57;;
27495;SDS011;14929;51.336;9.416;2024-03-07T06:05:03;8.23;;;7.38;;
27495;SDS011;14929;51.336;9.416;2024-03-07T06:07:37;6.30;;;5.68;;
27495;SDS011;14929;51.336;9.416;2024-03-07T06:10:06;9.55;;;7.97;;
27495;SDS011;14929;51.336;9.416;2024-03-07T06:12:36;10.07;;;8.25;;
27495;SDS011;14929;51.336;9.416;2024-03-07T06:15:06;10.43;;;9.43;;
27495;SDS011;14929;51.336;9.416;2024-03-07T06:17:34;8.38;;;7.43;;
27495;SDS011;14929;51.336;9.416;2024-03-07T06:20:02;9.60;;;8.48;;
27495;SDS011;14929;51.336;9.416;2024-03-07T06:22:47;9.63;;;8.27;;
27495;SDS011;14929;51.336;9.416;2024-03-07T06:50:03;11.43;;;10.23;;
27495;SDS011;14929;51.336;9.416;2024-03-07T06:52:46;16.08;;;13.70;;
27495;SDS011;14929;51.336;9.416;2024-03-07T08:08:07;11.13;;;9.93;;
27495;SDS011;14929;51.336;9.416;2024-03-07T08:10:38;11.90;;;9.82;;
27495;SDS011;14929;51.336;9.416;2024-03-07T08:13:06;13.10;;;10.10;;
27495;SDS011;14929;51.336;9.416;2024-03-07T08:15:35;9.18;;;8.18;;
27495;SDS011;14929;51.336;9.416;2024-03-07T08:18:03;9.95;;;8.93;;
27495;SDS011;14929;51.336;9.416;2024-03-07T08:20:33;15.10;;;12.13;;
27495;SDS011;14929;51.336;9.416;2024-03-07T08:23:01;12.35;;;9.57;;
27495;SDS011;14929;51.336;9.416;2024-03-07T08:25:31;12.48;;;10.57;;
27495;SDS011;14929;51.336;9.416;2024-03-07T08:28:00;11.10;;;9.95;;
27495;SDS011;14929;51.336;9.416;2024-03-07T08:30:28;12.10;;;10.07;;
27495;SDS011;14929;51.336;9.416;2024-03-07T08:32:55;11.05;;;9.65;;
27495;SDS011;14929;51.336;9.416;2024-03-07T08:35:24;12.65;;;9.98;;
27495;SDS011;14929;51.336;9.416;2024-03-07T08:37:52;12.95;;;11.00;;
27495;SDS011;14929;51.336;9.416;2024-03-07T08:40:23;9.85;;;8.85;;
27495;SDS011;14929;51.336;9.416;2024-03-07T08:42:54;9.23;;;7.80;;
27495;SDS011;14929;51.336;9.416;2024-03-07T08:45:22;14.32;;;9.90;;
27495;SDS011;14929;51.336;9.416;2024-03-07T08:47:51;10.38;;;9.23;;
27495;SDS011;14929;51.336;9.416;2024-03-07T08:50:21;15.63;;;13.27;;
27495;SDS011;14929;51.336;9.416;2024-03-07T08:52:51;11.35;;;10.15;;
27495;SDS011;14929;51.336;9.416;2024-03-07T08:55:19;9.75;;;8.75;;
27495;SDS011;14929;51.336;9.416;2024-03-07T08:57:49;12.05;;;10.15;;
27495;SDS011;14929;51.336;9.416;2024-03-07T09:00:19;11.38;;;10.25;;
27495;SDS011;14929;51.336;9.416;2024-03-07T09:02:49;13.35;;;11.25;;
27495;SDS011;14929;51.336;9.416;2024-03-07T09:05:17;12.55;;;10.50;;
27495;SDS011;14929;51.336;9.416;2024-03-07T09:07:47;9.75;;;8.75;;
27495;SDS011;14929;51.336;9.416;2024-03-07T09:10:15;15.65;;;12.10;;
27495;SDS011;14929;51.336;9.416;2024-03-07T09:12:43;16.13;;;11.00;;
27495;SDS011;14929;51.336;9.416;2024-03-07T09:15:13;14.18;;;11.55;;
27495;SDS011;14929;51.336;9.416;2024-03-07T09:17:43;17.67;;;12.40;;
27495;SDS011;14929;51.336;9.416;2024-03-07T09:20:12;11.95;;;9.82;;
27495;SDS011;14929;51.336;9.416;2024-03-07T09:22:40;15.45;;;11.52;;
27495;SDS011;14929;51.336;9.416;2024-03-07T09:25:09;11.65;;;9.75;;
27495;SDS011;14929;51.336;9.416;2024-03-07T09:27:37;14.13;;;10.13;;
27495;SDS011;14929;51.336;9.416;2024-03-07T09:30:06;12.90;;;10.50;;
27495;SDS011;14929;51.336;9.416;2024-03-07T09:32:39;15.48;;;11.18;;
27495;SDS011;14929;51.336;9.416;2024-03-07T09:35:10;13.70;;;11.05;;
27495;SDS011;14929;51.336;9.416;2024-03-07T09:37:39;13.63;;;11.05;;
27495;SDS011;14929;51.336;9.416;2024-03-07T09:40:08;13.23;;;9.85;;
27495;SDS011;14929;51.336;9.416;2024-03-07T09:42:37;13.05;;;9.27;;
27495;SDS011;14929;51.336;9.416;2024-03-07T09:45:13;13.27;;;10.25;;
27495;SDS011;14929;51.336;9.416;2024-03-07T09:47:45;10.77;;;9.35;;
27495;SDS011;14929;51.336;9.416;2024-03-07T09:50:17;10.35;;;8.38;;
27495;SDS011;14929;51.336;9.416;2024-03-07T09:52:47;14.60;;;11.18;;
27495;SDS011;14929;51.336;9.416;2024-03-07T09:55:15;13.13;;;9.82;;
27495;SDS011;14929;51.336;9.416;2024-03-07T09:57:45;14.38;;;10.25;;
27495;SDS011;14929;51.336;9.416;2024-03-07T10:00:16;11.07;;;9.20;;
27495;SDS011;14929;51.336;9.416;2024-03-07T10:02:53;13.35;;;9.98;;
27495;SDS011;14929;51.336;9.416;2024-03-07T10:05:25;14.32;;;11.45;;
27495;SDS011;14929;51.336;9.416;2024-03-07T10:07:54;15.15;;;10.52;;
27495;SDS011;14929;51.336;9.416;2024-03-07T10:10:22;13.40;;;9.57;;
27495;SDS011;14929;51.336;9.416;2024-03-07T10:12:51;12.35;;;10.02;;
27495;SDS011;14929;51.336;9.416;2024-03-07T10:15:26;15.52;;;10.25;;
27495;SDS011;14929;51.336;9.416;2024-03-07T10:17:55;13.23;;;9.90;;
27495;SDS011;14929;51.336;9.416;2024-03-07T10:20:22;12.27;;;10.02;;
27495;SDS011;14929;51.336;9.416;2024-03-07T10:22:52;11.00;;;9.85;;
27495;SDS011;14929;51.336;9.416;2024-03-07T10:25:20;14.57;;;11.50;;
27495;SDS011;14929;51.336;9.416;2024-03-07T10:27:50;16.40;;;11.88;;
27495;SDS011;14929;51.336;9.416;2024-03-07T10:30:18;14.15;;;11.32;;
27495;SDS011;14929;51.336;9.416;2024-03-07T10:32:46;15.00;;;11.68;;
27495;SDS011;14929;51.336;9.416;2024-03-07T10:35:19;15.75;;;11.60;;
27495;SDS011;14929;51.336;9.416;2024-03-07T10:37:50;16.00;;;11.75;;
27495;SDS011;14929;51.336;9.416;2024-03-07T10:40:20;15.07;;;12.20;;
27495;SDS011;14929;51.336;9.416;2024-03-07T10:42:47;12.68;;;10.13;;
27495;SDS011;14929;51.336;9.416;2024-03-07T10:45:18;12.18;;;9.23;;
27495;SDS011;14929;51.336;9.416;2024-03-07T10:47:48;14.52;;;11.27;;
27495;SDS011;14929;51.336;9.416;2024-03-07T10:50:24;12.80;;;10.07;;
27495;SDS011;14929;51.336;9.416;2024-03-07T10:53:10;13.85;;;11.40;;
27495;SDS011;14929;51.336;9.416;2024-03-07T10:55:49;16.45;;;11.32;;
27495;SDS011;14929;51.336;9.416;2024-03-07T10:58:31;12.60;;;9.82;;
27495;SDS011;14929;51.336;9.416;2024-03-07T11:01:04;16.65;;;10.75;;
27495;SDS011;14929;51.336;9.416;2024-03-07T11:03:36;13.23;;;10.00;;
27495;SDS011;14929;51.336;9.416;2024-03-07T11:06:04;15.52;;;11.20;;
27495;SDS011;14929;51.336;9.416;2024-03-07T11:08:40;10.02;;;8.43;;
27495;SDS011;14929;51.336;9.416;2024-03-07T11:11:09;9.88;;;7.65;;
27495;SDS011;14929;51.336;9.416;2024-03-07T11:13:37;11.43;;;8.98;;
27495;SDS011;14929;51.336;9.416;2024-03-07T11:16:04;13.25;;;10.68;;
27495;SDS011;14929;51.336;9.416;2024-03-07T11:18:33;16.13;;;9.40;;
27495;SDS011;14929;51.336;9.416;2024-03-07T11:21:00;15.45;;;11.25;;
27495;SDS011;14929;51.336;9.416;2024-03-07T11:23:32;12.80;;;10.00;;
27495;SDS011;14929;51.336;9.416;2024-03-07T11:26:05;12.93;;;10.45;;
27495;SDS011;14929;51.336;9.416;2024-03-07T11:28:33;15.63;;;9.77;;
27495;SDS011;14929;51.336;9.416;2024-03-07T11:31:09;13.15;;;10.13;;
27495;SDS011;14929;51.336;9.416;2024-03-07T11:33:40;15.05;;;10.77;;
27495;SDS011;14929;51.336;9.416;2024-03-07T11:36:08;12.00;;;10.30;;
27495;SDS011;14929;51.336;9.416;2024-03-07T11:38:37;15.82;;;11.38;;
27495;SDS011;14929;51.336;9.416;2024-03-07T11:41:07;14.35;;;11.13;;
27495;SDS011;14929;51.336;9.416;2024-03-07T11:43:38;11.55;;;10.23;;
27495;SDS011;14929;51.336;9.416;2024-03-07T11:46:07;12.23;;;9.88;;
27495;SDS011;14929;51.336;9.416;2024-03-07T11:48:38;12.68;;;11.13;;
27495;SDS011;14929;51.336;9.416;2024-03-07T11:51:07;13.02;;;10.20;;
27495;SDS011;14929;51.336;9.416;2024-03-07T11:53:38;15.70;;;11.32;;
27495;SDS011;14929;51.336;9.416;2024-03-07T11:56:07;14.00;;;11.88;;
27495;SDS011;14929;51.336;9.416;2024-03-07T11:58:41;17.42;;;11.68;;
27495;SDS011;14929;51.336;9.416;2024-03-07T12:01:09;12.25;;;9.45;;
27495;SDS011;14929;51.336;9.416;2024-03-07T12:03:38;14.57;;;11.18;;
27495;SDS011;14929;51.336;9.416;2024-03-07T12:06:08;12.52;;;9.07;;
27495;SDS011;14929;51.336;9.416;2024-03-07T12:08:37;16.00;;;11.50;;
27495;SDS011;14929;51.336;9.416;2024-03-07T12:11:05;10.00;;;8.90;;
27495;SDS011;14929;51.336;9.416;2024-03-07T12:13:37;11.25;;;8.35;;
27495;SDS011;14929;51.336;9.416;2024-03-07T12:16:06;14.63;;;8.80;;
27495;SDS011;14929;51.336;9.416;2024-03-07T12:18:34;11.05;;;9.25;;
27495;SDS011;14929;51.336;9.416;2024-03-07T12:21:02;9.45;;;8.30;;
27495;SDS011;14929;51.336;9.416;2024-03-07T12:23:33;11.02;;;8.45;;
27495;SDS011;14929;51.336;9.416;2024-03-07T12:26:01;9.30;;;7.57;;
27495;SDS011;14929;51.336;9.416;2024-03-07T12:28:31;11.15;;;8.65;;
27495;SDS011;14929;51.336;9.416;2024-03-07T12:30:59;11.88;;;9.00;;
27495;SDS011;14929;51.336;9.416;2024-03-07T12:33:28;12.40;;;9.70;;
27495;SDS011;14929;51.336;9.416;2024-03-07T12:36:04;9.35;;;8.13;;
27495;SDS011;14929;51.336;9.416;2024-03-07T12:38:32;10.85;;;7.97;;
27495;SDS011;14929;51.336;9.416;2024-03-07T12:41:02;9.65;;;8.05;;
27495;SDS011;14929;51.336;9.416;2024-03-07T12:43:33;9.55;;;7.32;;
27495;SDS011;14929;51.336;9.416;2024-03-07T12:46:01;12.18;;;8.95;;
27495;SDS011;14929;51.336;9.416;2024-03-07T12:48:31;10.43;;;8.52;;
27495;SDS011;14929;51.336;9.416;2024-03-07T12:50:58;12.23;;;9.30;;
27495;SDS011;14929;51.336;9.416;2024-03-07T12:53:26;12.52;;;10.35;;
27495;SDS011;14929;51.336;9.416;2024-03-07T12:55:54;14.85;;;9.13;;
27495;SDS011;14929;51.336;9.416;2024-03-07T12:58:22;13.18;;;10.70;;
27495;SDS011;14929;51.336;9.416;2024-03-07T13:00:52;11.98;;;9.45;;
27495;SDS011;14929;51.336;9.416;2024-03-07T13:03:20;13.15;;;8.63;;
27495;SDS011;14929;51.336;9.416;2024-03-07T13:05:48;11.52;;;8.07;;
27495;SDS011;14929;51.336;9.416;2024-03-07T13:08:15;13.57;;;9.57;;
27495;SDS011;14929;51.336;9.416;2024-03-07T13:10:43;8.85;;;7.40;;
27495;SDS011;14929;51.336;9.416;2024-03-07T13:13:10;13.75;;;9.75;;
27495;SDS011;14929;51.336;9.416;2024-03-07T13:15:38;14.00;;;10.40;;
27495;SDS011;14929;51.336;9.416;2024-03-07T13:18:09;13.68;;;9.93;;
27495;SDS011;14929;51.336;9.416;2024-03-07T13:20:38;12.98;;;9.45;;
27495;SDS011;14929;51.336;9.416;2024-03-07T13:23:08;10.95;;;9.30;;
27495;SDS011;14929;51.336;9.416;2024-03-07T13:25:35;11.48;;;9.30;;
27495;SDS011;14929;51.336;9.416;2024-03-07T13:28:04;10.60;;;8.27;;
27495;SDS011;14929;51.336;9.416;2024-03-07T13:30:37;9.07;;;7.07;;
27495;SDS011;14929;51.336;9.416;2024-03-07T13:33:04;11.43;;;8.30;;
27495;SDS011;14929;51.336;9.416;2024-03-07T13:35:34;9.05;;;6.60;;
27495;SDS011;14929;51.336;9.416;2024-03-07T13:38:01;11.00;;;8.43;;
27495;SDS011;14929;51.336;9.416;2024-03-07T13:40:29;14.30;;;8.93;;
27495;SDS011;14929;51.336;9.416;2024-03-07T13:43:00;9.32;;;7.63;;
27495;SDS011;14929;51.336;9.416;2024-03-07T13:45:29;9.75;;;8.23;;
27495;SDS011;14929;51.336;9.416;2024-03-07T13:48:04;9.50;;;8.45;;
27495;SDS011;14929;51.336;9.416;2024-03-07T13:50:34;10.38;;;8.23;;
27495;SDS011;14929;51.336;9.416;2024-03-07T13:53:05;9.93;;;8.00;;
27495;SDS011;14929;51.336;9.416;2024-03-07T13:55:45;13.02;;;9.25;;
27495;SDS011;14929;51.336;9.416;2024-03-07T13:58:35;8.80;;;7.80;;
27495;SDS011;14929;51.336;9.416;2024-03-07T14:01:19;6.65;;;6.05;;
27495;SDS011;14929;51.336;9.416;2024-03-07T14:07:20;9.00;;;6.80;;
27495;SDS011;14929;51.336;9.416;2024-03-07T14:10:06;7.60;;;6.72;;
27495;SDS011;14929;51.336;9.416;2024-03-07T14:13:18;8.63;;;7.25;;
27495;SDS011;14929;51.336;9.416;2024-03-07T14:16:12;9.40;;;7.53;;
27495;SDS011;14929;51.336;9.416;2024-03-07T14:19:29;12.05;;;8.25;;
27495;SDS011;14929;51.336;9.416;2024-03-07T14:22:21;11.05;;;8.82;;
27495;SDS011;14929;51.336;9.416;2024-03-07T14:28:17;9.10;;;8.10;;
27495;SDS011;14929;51.336;9.416;2024-03-07T14:31:37;10.15;;;8.55;;
27495;SDS011;14929;51.336;9.416;2024-03-07T14:34:10;12.98;;;7.63;;
27495;SDS011;14929;51.336;9.416;2024-03-07T14:36:41;8.32;;;7.53;;
27495;SDS011;14929;51.336;9.416;2024-03-07T14:39:14;6.78;;;6.07;;
27495;SDS011;14929;51.336;9.416;2024-03-07T14:41:48;8.50;;;7.28;;
27495;SDS011;14929;51.336;9.416;2024-03-07T14:44:19;10.38;;;7.25;;
27495;SDS011;14929;51.336;9.416;2024-03-07T14:46:48;11.05;;;7.88;;
27495;SDS011;14929;51.336;9.416;2024-03-07T14:49:32;9.50;;;7.80;;
27495;SDS011;14929;51.336;9.416;2024-03-07T14:52:01;10.27;;;8.18;;
27495;SDS011;14929;51.336;9.416;2024-03-07T14:54:30;10.15;;;8.40;;
27495;SDS011;14929;51.336;9.416;2024-03-07T14:56:58;8.27;;;7.45;;
27495;SDS011;14929;51.336;9.416;2024-03-07T14:59:25;8.38;;;7.22;;
27495;SDS011;14929;51.336;9.416;2024-03-07T15:01:53;9.07;;;7.22;;
27495;SDS011;14929;51.336;9.416;2024-03-07T15:04:23;9.90;;;8.27;;
27495;SDS011;14929;51.336;9.416;2024-03-07T15:06:51;10.30;;;7.53;;
27495;SDS011;14929;51.336;9.416;2024-03-07T15:09:22;9.52;;;7.85;;
27495;SDS011;14929;51.336;9.416;2024-03-07T15:11:51;9.88;;;7.78;;
27495;SDS011;14929;51.336;9.416;2024-03-07T15:14:18;9.98;;;8.52;;
27495;SDS011;14929;51.336;9.416;2024-03-07T15:16:46;8.40;;;7.28;;
27495;SDS011;14929;51.336;9.416;2024-03-07T15:19:14;12.23;;;6.22;;
27495;SDS011;14929;51.336;9.416;2024-03-07T15:21:43;8.25;;;6.88;;
27495;SDS011;14929;51.336;9.416;2024-03-07T15:24:12;8.95;;;7.13;;
27495;SDS011;14929;51.336;9.416;2024-03-07T15:26:40;10.40;;;8.00;;
27495;SDS011;14929;51.336;9.416;2024-03-07T15:29:09;10.15;;;8.20;;
27495;SDS011;14929;51.336;9.416;2024-03-07T15:31:36;9.88;;;8.02;;
27495;SDS011;14929;51.336;9.416;2024-03-07T15:34:05;7.97;;;7.18;;
27495;SDS011;14929;51.336;9.416;2024-03-07T15:36:34;10.80;;;9.00;;
27495;SDS011;14929;51.336;9.416;2024-03-07T15:39:02;9.40;;;8.45;;
27495;SDS011;14929;51.336;9.416;2024-03-07T15:41:44;8.93;;;7.72;;
27495;SDS011;14929;51.336;9.416;2024-03-07T15:44:14;8.52;;;7.35;;
27495;SDS011;14929;51.336;9.416;2024-03-07T15:46:42;9.38;;;8.52;;
27495;SDS011;14929;51.336;9.416;2024-03-07T15:49:09;10.65;;;8.23;;
27495;SDS011;14929;51.336;9.416;2024-03-07T15:51:38;10.43;;;8.50;;
27495;SDS011;14929;51.336;9.416;2024-03-07T15:54:07;8.20;;;7.40;;
27495;SDS011;14929;51.336;9.416;2024-03-07T15:56:36;9.77;;;8.55;;
27495;SDS011;14929;51.336;9.416;2024-03-07T15:59:04;10.82;;;7.95;;
27495;SDS011;14929;51.336;9.416;2024-03-07T16:01:33;9.75;;;8.05;;
27495;SDS011;14929;51.336;9.416;2024-03-07T16:04:00;9.48;;;8.02;;
27495;SDS011;14929;51.336;9.416;2024-03-07T16:06:30;9.43;;;6.97;;
27495;SDS011;14929;51.336;9.416;2024-03-07T16:08:58;6.75;;;6.05;;
27495;SDS011;14929;51.336;9.416;2024-03-07T16:11:25;9.45;;;8.23;;
27495;SDS011;14929;51.336;9.416;2024-03-07T16:13:55;9.15;;;7.40;;
27495;SDS011;14929;51.336;9.416;2024-03-07T16:16:22;8.52;;;7.60;;
27495;SDS011;14929;51.336;9.416;2024-03-07T16:18:51;10.10;;;8.32;;
27495;SDS011;14929;51.336;9.416;2024-03-07T16:21:19;9.93;;;8.93;;
27495;SDS011;14929;51.336;9.416;2024-03-07T16:23:47;10.55;;;8.65;;
27495;SDS011;14929;51.336;9.416;2024-03-07T16:26:18;9.23;;;7.28;;
27495;SDS011;14929;51.336;9.416;2024-03-07T16:28:46;9.80;;;8.05;;
27495;SDS011;14929;51.336;9.416;2024-03-07T16:31:13;11.05;;;8.88;;
27495;SDS011;14929;51.336;9.416;2024-03-07T16:33:41;9.32;;;7.50;;
27495;SDS011;14929;51.336;9.416;2024-03-07T16:36:11;8.13;;;7.13;;
27495;SDS011;14929;51.336;9.416;2024-03-07T16:38:40;12.18;;;9.52;;